sensor_id;sensor_type;location;lat;lon;timestamp;P1;durP1;ratioP1;P2;durP2;ratioP2
80836;SDS011;70251;60.008;30.404;2023-11-22T00:01:05;7.47;;;2.00;;
80836;SDS011;70251;60.008;30.404;2023-11-22T00:03:31;5.93;;;1.35;;
80836;SDS011;70251;60.008;30.404;2023-11-22T00:06:01;4.78;;;1.20;;
80836;SDS011;70251;60.008;30.404;2023-11-22T00:08:27;4.05;;;0.75;;
80836;SDS011;70251;60.008;30.404;2023-11-22T00:10:52;4.77;;;1.00;;
80836;SDS011;70251;60.008;30.404;2023-11-22T00:13:18;4.57;;;0.90;;
80836;SDS011;70251;60.008;30.404;2023-11-22T00:15:43;6.35;;;1.02;;
80836;SDS011;70251;60.008;30.404;2023-11-22T00:18:12;4.80;;;1.10;;
80836;SDS011;70251;60.008;30.404;2023-11-22T00:20:40;4.80;;;1.30;;
80836;SDS011;70251;60.008;30.404;2023-11-22T00:23:05;6.00;;;1.75;;
80836;SDS011;70251;60.008;30.404;2023-11-22T00:25:31;11.20;;;3.63;;
80836;SDS011;70251;60.008;30.404;2023-11-22T00:27:58;9.20;;;3.15;;
80836;SDS011;70251;60.008;30.404;2023-11-22T00:30:24;6.50;;;1.33;;
80836;SDS011;70251;60.008;30.404;2023-11-22T00:32:50;5.63;;;1.30;;
80836;SDS011;70251;60.008;30.404;2023-11-22T00:35:16;6.38;;;1.48;;
80836;SDS011;70251;60.008;30.404;2023-11-22T00:37:42;8.63;;;1.98;;
80836;SDS011;70251;60.008;30.404;2023-11-22T00:40:08;6.37;;;1.30;;
80836;SDS011;70251;60.008;30.404;2023-11-22T00:42:37;4.55;;;1.33;;
80836;SDS011;70251;60.008;30.404;2023-11-22T00:45:06;5.18;;;1.25;;
80836;SDS011;70251;60.008;30.404;2023-11-22T00:47:32;4.88;;;0.98;;
80836;SDS011;70251;60.008;30.404;2023-11-22T00:49:58;5.63;;;1.27;;
80836;SDS011;70251;60.008;30.404;2023-11-22T00:52:24;9.05;;;2.00;;
80836;SDS011;70251;60.008;30.404;2023-11-22T00:54:50;4.45;;;1.02;;
80836;SDS011;70251;60.008;30.404;2023-11-22T00:57:21;4.43;;;1.10;;
80836;SDS011;70251;60.008;30.404;2023-11-22T00:59:47;4.82;;;1.02;;
80836;SDS011;70251;60.008;30.404;2023-11-22T01:02:13;5.32;;;1.08;;
80836;SDS011;70251;60.008;30.404;2023-11-22T01:04:39;3.97;;;0.67;;
80836;SDS011;70251;60.008;30.404;2023-11-22T01:07:05;4.32;;;0.80;;
80836;SDS011;70251;60.008;30.404;2023-11-22T01:09:37;5.55;;;0.80;;
80836;SDS011;70251;60.008;30.404;2023-11-22T01:12:03;5.32;;;1.10;;
80836;SDS011;70251;60.008;30.404;2023-11-22T01:14:28;4.73;;;0.93;;
80836;SDS011;70251;60.008;30.404;2023-11-22T01:16:55;4.43;;;1.00;;
80836;SDS011;70251;60.008;30.404;2023-11-22T01:19:21;4.28;;;0.90;;
80836;SDS011;70251;60.008;30.404;2023-11-22T01:21:47;5.13;;;0.88;;
80836;SDS011;70251;60.008;30.404;2023-11-22T01:24:16;4.83;;;1.20;;
80836;SDS011;70251;60.008;30.404;2023-11-22T01:26:42;5.78;;;0.60;;
80836;SDS011;70251;60.008;30.404;2023-11-22T01:29:08;3.97;;;0.80;;
80836;SDS011;70251;60.008;30.404;2023-11-22T01:31:36;3.92;;;0.77;;
80836;SDS011;70251;60.008;30.404;2023-11-22T01:34:02;4.37;;;0.90;;
80836;SDS011;70251;60.008;30.404;2023-11-22T01:36:30;5.05;;;1.00;;
80836;SDS011;70251;60.008;30.404;2023-11-22T01:38:56;4.25;;;0.68;;
80836;SDS011;70251;60.008;30.404;2023-11-22T01:41:22;5.33;;;0.83;;
80836;SDS011;70251;60.008;30.404;2023-11-22T01:43:48;6.60;;;0.88;;
80836;SDS011;70251;60.008;30.404;2023-11-22T01:46:21;3.92;;;0.75;;
80836;SDS011;70251;60.008;30.404;2023-11-22T01:48:52;4.05;;;0.73;;
80836;SDS011;70251;60.008;30.404;2023-11-22T01:51:21;3.90;;;0.82;;
80836;SDS011;70251;60.008;30.404;2023-11-22T01:53:47;4.93;;;0.50;;
80836;SDS011;70251;60.008;30.404;2023-11-22T01:56:15;4.10;;;0.63;;
80836;SDS011;70251;60.008;30.404;2023-11-22T01:58:43;3.00;;;0.80;;
80836;SDS011;70251;60.008;30.404;2023-11-22T02:01:09;3.50;;;0.80;;
80836;SDS011;70251;60.008;30.404;2023-11-22T02:03:41;4.30;;;0.85;;
80836;SDS011;70251;60.008;30.404;2023-11-22T02:06:10;4.20;;;0.80;;
80836;SDS011;70251;60.008;30.404;2023-11-22T02:08:36;3.53;;;0.60;;
80836;SDS011;70251;60.008;30.404;2023-11-22T02:11:02;5.72;;;0.55;;
80836;SDS011;70251;60.008;30.404;2023-11-22T02:13:32;4.30;;;0.80;;
80836;SDS011;70251;60.008;30.404;2023-11-22T02:16:00;3.60;;;0.60;;
80836;SDS011;70251;60.008;30.404;2023-11-22T02:18:27;3.58;;;0.55;;
80836;SDS011;70251;60.008;30.404;2023-11-22T02:20:57;3.33;;;0.57;;
80836;SDS011;70251;60.008;30.404;2023-11-22T02:23:23;3.08;;;0.50;;
80836;SDS011;70251;60.008;30.404;2023-11-22T02:25:48;3.77;;;0.67;;
80836;SDS011;70251;60.008;30.404;2023-11-22T02:28:14;3.63;;;0.50;;
80836;SDS011;70251;60.008;30.404;2023-11-22T02:30:40;4.78;;;0.55;;
80836;SDS011;70251;60.008;30.404;2023-11-22T02:33:07;2.85;;;0.30;;
80836;SDS011;70251;60.008;30.404;2023-11-22T02:35:33;4.50;;;0.40;;
80836;SDS011;70251;60.008;30.404;2023-11-22T02:37:59;3.25;;;0.40;;
80836;SDS011;70251;60.008;30.404;2023-11-22T02:40:25;2.17;;;0.32;;
80836;SDS011;70251;60.008;30.404;2023-11-22T02:42:52;2.63;;;0.38;;
80836;SDS011;70251;60.008;30.404;2023-11-22T02:45:19;2.88;;;0.38;;
80836;SDS011;70251;60.008;30.404;2023-11-22T02:47:48;3.27;;;0.37;;
80836;SDS011;70251;60.008;30.404;2023-11-22T02:50:15;2.88;;;0.40;;
80836;SDS011;70251;60.008;30.404;2023-11-22T02:52:41;2.10;;;0.20;;
80836;SDS011;70251;60.008;30.404;2023-11-22T02:55:07;1.73;;;0.30;;
80836;SDS011;70251;60.008;30.404;2023-11-22T02:57:37;3.30;;;0.50;;
80836;SDS011;70251;60.008;30.404;2023-11-22T03:00:05;2.27;;;0.30;;
80836;SDS011;70251;60.008;30.404;2023-11-22T03:02:33;2.40;;;0.32;;
80836;SDS011;70251;60.008;30.404;2023-11-22T03:04:59;2.72;;;0.63;;
80836;SDS011;70251;60.008;30.404;2023-11-22T03:07:25;1.85;;;0.20;;
80836;SDS011;70251;60.008;30.404;2023-11-22T03:09:51;2.13;;;0.40;;
80836;SDS011;70251;60.008;30.404;2023-11-22T03:12:18;3.50;;;0.32;;
80836;SDS011;70251;60.008;30.404;2023-11-22T03:14:45;1.85;;;0.20;;
80836;SDS011;70251;60.008;30.404;2023-11-22T03:17:14;2.22;;;0.30;;
80836;SDS011;70251;60.008;30.404;2023-11-22T03:19:40;2.60;;;0.30;;
80836;SDS011;70251;60.008;30.404;2023-11-22T03:22:05;0.97;;;0.20;;
80836;SDS011;70251;60.008;30.404;2023-11-22T03:24:32;1.60;;;0.20;;
80836;SDS011;70251;60.008;30.404;2023-11-22T03:27:05;1.50;;;0.10;;
80836;SDS011;70251;60.008;30.404;2023-11-22T03:29:32;1.93;;;0.20;;
80836;SDS011;70251;60.008;30.404;2023-11-22T03:32:00;2.10;;;0.30;;
80836;SDS011;70251;60.008;30.404;2023-11-22T03:34:26;1.30;;;0.20;;
80836;SDS011;70251;60.008;30.404;2023-11-22T03:36:52;0.88;;;0.20;;
80836;SDS011;70251;60.008;30.404;2023-11-22T03:39:17;1.77;;;0.20;;
80836;SDS011;70251;60.008;30.404;2023-11-22T03:41:43;1.60;;;0.20;;
80836;SDS011;70251;60.008;30.404;2023-11-22T03:44:09;2.47;;;0.30;;
80836;SDS011;70251;60.008;30.404;2023-11-22T03:46:38;1.02;;;0.17;;
80836;SDS011;70251;60.008;30.404;2023-11-22T03:49:04;1.33;;;0.20;;
80836;SDS011;70251;60.008;30.404;2023-11-22T03:51:34;2.13;;;0.30;;
80836;SDS011;70251;60.008;30.404;2023-11-22T03:54:00;1.40;;;0.10;;
80836;SDS011;70251;60.008;30.404;2023-11-22T03:56:27;1.73;;;0.17;;
80836;SDS011;70251;60.008;30.404;2023-11-22T03:58:54;1.80;;;0.17;;
80836;SDS011;70251;60.008;30.404;2023-11-22T04:01:19;1.67;;;0.10;;
80836;SDS011;70251;60.008;30.404;2023-11-22T04:03:48;2.73;;;0.30;;
80836;SDS011;70251;60.008;30.404;2023-11-22T04:06:15;3.17;;;0.40;;
80836;SDS011;70251;60.008;30.404;2023-11-22T04:08:45;1.77;;;0.20;;
80836;SDS011;70251;60.008;30.404;2023-11-22T04:11:15;1.77;;;0.20;;
80836;SDS011;70251;60.008;30.404;2023-11-22T04:13:43;1.95;;;0.30;;
80836;SDS011;70251;60.008;30.404;2023-11-22T04:16:09;2.07;;;0.20;;
80836;SDS011;70251;60.008;30.404;2023-11-22T04:18:40;1.17;;;0.13;;
80836;SDS011;70251;60.008;30.404;2023-11-22T04:21:07;1.65;;;0.20;;
80836;SDS011;70251;60.008;30.404;2023-11-22T04:23:34;1.40;;;0.20;;
80836;SDS011;70251;60.008;30.404;2023-11-22T04:26:01;2.83;;;0.30;;
80836;SDS011;70251;60.008;30.404;2023-11-22T04:28:28;1.93;;;0.20;;
80836;SDS011;70251;60.008;30.404;2023-11-22T04:30:55;1.33;;;0.22;;
80836;SDS011;70251;60.008;30.404;2023-11-22T04:33:22;1.95;;;0.20;;
80836;SDS011;70251;60.008;30.404;2023-11-22T04:35:48;2.53;;;0.20;;
80836;SDS011;70251;60.008;30.404;2023-11-22T04:38:14;1.45;;;0.20;;
80836;SDS011;70251;60.008;30.404;2023-11-22T04:40:40;2.47;;;0.20;;
80836;SDS011;70251;60.008;30.404;2023-11-22T04:43:07;1.77;;;0.20;;
80836;SDS011;70251;60.008;30.404;2023-11-22T04:45:34;1.67;;;0.20;;
80836;SDS011;70251;60.008;30.404;2023-11-22T04:48:00;1.47;;;0.23;;
80836;SDS011;70251;60.008;30.404;2023-11-22T04:50:25;3.33;;;0.52;;
80836;SDS011;70251;60.008;30.404;2023-11-22T04:52:51;2.72;;;0.40;;
80836;SDS011;70251;60.008;30.404;2023-11-22T04:55:17;3.73;;;0.50;;
80836;SDS011;70251;60.008;30.404;2023-11-22T04:57:48;2.70;;;0.40;;
80836;SDS011;70251;60.008;30.404;2023-11-22T05:00:14;3.42;;;0.50;;
80836;SDS011;70251;60.008;30.404;2023-11-22T05:02:39;3.90;;;0.22;;
80836;SDS011;70251;60.008;30.404;2023-11-22T05:05:06;2.73;;;0.37;;
80836;SDS011;70251;60.008;30.404;2023-11-22T05:07:38;5.72;;;0.70;;
80836;SDS011;70251;60.008;30.404;2023-11-22T05:10:04;3.42;;;0.40;;
80836;SDS011;70251;60.008;30.404;2023-11-22T05:12:31;4.38;;;0.43;;
80836;SDS011;70251;60.008;30.404;2023-11-22T05:14:57;3.37;;;0.40;;
80836;SDS011;70251;60.008;30.404;2023-11-22T05:17:23;2.78;;;0.43;;
80836;SDS011;70251;60.008;30.404;2023-11-22T05:19:49;1.55;;;0.22;;
80836;SDS011;70251;60.008;30.404;2023-11-22T05:22:16;3.13;;;0.40;;
80836;SDS011;70251;60.008;30.404;2023-11-22T05:24:41;1.67;;;0.15;;
80836;SDS011;70251;60.008;30.404;2023-11-22T05:27:07;1.37;;;0.20;;
80836;SDS011;70251;60.008;30.404;2023-11-22T05:29:34;2.15;;;0.30;;
80836;SDS011;70251;60.008;30.404;2023-11-22T05:32:00;2.67;;;0.40;;
80836;SDS011;70251;60.008;30.404;2023-11-22T05:34:28;3.38;;;0.40;;
80836;SDS011;70251;60.008;30.404;2023-11-22T05:36:57;4.03;;;0.50;;
80836;SDS011;70251;60.008;30.404;2023-11-22T05:39:23;2.53;;;0.60;;
80836;SDS011;70251;60.008;30.404;2023-11-22T05:41:50;2.90;;;0.40;;
80836;SDS011;70251;60.008;30.404;2023-11-22T05:44:16;1.38;;;0.20;;
80836;SDS011;70251;60.008;30.404;2023-11-22T05:46:42;4.47;;;0.57;;
80836;SDS011;70251;60.008;30.404;2023-11-22T05:49:08;3.10;;;0.30;;
80836;SDS011;70251;60.008;30.404;2023-11-22T05:51:36;3.17;;;0.40;;
80836;SDS011;70251;60.008;30.404;2023-11-22T05:54:06;2.15;;;0.30;;
80836;SDS011;70251;60.008;30.404;2023-11-22T05:56:32;4.28;;;0.30;;
80836;SDS011;70251;60.008;30.404;2023-11-22T05:58:58;2.30;;;0.47;;
80836;SDS011;70251;60.008;30.404;2023-11-22T06:01:25;3.30;;;0.55;;
80836;SDS011;70251;60.008;30.404;2023-11-22T06:03:52;2.40;;;0.40;;
80836;SDS011;70251;60.008;30.404;2023-11-22T06:06:18;2.78;;;0.40;;
80836;SDS011;70251;60.008;30.404;2023-11-22T06:08:47;3.33;;;0.40;;
80836;SDS011;70251;60.008;30.404;2023-11-22T06:11:13;2.50;;;0.25;;
80836;SDS011;70251;60.008;30.404;2023-11-22T06:13:40;2.47;;;0.30;;
80836;SDS011;70251;60.008;30.404;2023-11-22T06:16:07;1.37;;;0.10;;
80836;SDS011;70251;60.008;30.404;2023-11-22T06:18:34;2.15;;;0.20;;
80836;SDS011;70251;60.008;30.404;2023-11-22T06:21:09;1.77;;;0.10;;
80836;SDS011;70251;60.008;30.404;2023-11-22T06:23:35;2.42;;;0.30;;
80836;SDS011;70251;60.008;30.404;2023-11-22T06:26:01;1.35;;;0.17;;
80836;SDS011;70251;60.008;30.404;2023-11-22T06:28:27;1.13;;;0.10;;
80836;SDS011;70251;60.008;30.404;2023-11-22T06:30:55;1.83;;;0.05;;
80836;SDS011;70251;60.008;30.404;2023-11-22T06:33:21;0.25;;;0.00;;
80836;SDS011;70251;60.008;30.404;2023-11-22T06:35:46;1.53;;;0.10;;
80836;SDS011;70251;60.008;30.404;2023-11-22T06:38:12;0.93;;;0.10;;
80836;SDS011;70251;60.008;30.404;2023-11-22T06:40:38;1.00;;;0.10;;
80836;SDS011;70251;60.008;30.404;2023-11-22T06:43:04;1.05;;;0.10;;
80836;SDS011;70251;60.008;30.404;2023-11-22T06:45:30;3.90;;;0.50;;
80836;SDS011;70251;60.008;30.404;2023-11-22T06:48:00;4.68;;;0.57;;
80836;SDS011;70251;60.008;30.404;2023-11-22T06:50:26;2.47;;;0.30;;
80836;SDS011;70251;60.008;30.404;2023-11-22T06:52:52;2.15;;;0.30;;
80836;SDS011;70251;60.008;30.404;2023-11-22T06:55:19;2.03;;;0.20;;
80836;SDS011;70251;60.008;30.404;2023-11-22T06:57:45;3.72;;;0.52;;
80836;SDS011;70251;60.008;30.404;2023-11-22T07:00:11;4.63;;;0.70;;
80836;SDS011;70251;60.008;30.404;2023-11-22T07:02:42;5.20;;;0.70;;
80836;SDS011;70251;60.008;30.404;2023-11-22T07:05:07;5.00;;;0.90;;
80836;SDS011;70251;60.008;30.404;2023-11-22T07:07:35;3.50;;;0.75;;
80836;SDS011;70251;60.008;30.404;2023-11-22T07:10:02;4.93;;;0.80;;
80836;SDS011;70251;60.008;30.404;2023-11-22T07:12:29;5.60;;;0.90;;
80836;SDS011;70251;60.008;30.404;2023-11-22T07:14:55;6.20;;;1.08;;
80836;SDS011;70251;60.008;30.404;2023-11-22T07:17:21;5.17;;;0.90;;
80836;SDS011;70251;60.008;30.404;2023-11-22T07:19:47;4.13;;;0.82;;
80836;SDS011;70251;60.008;30.404;2023-11-22T07:22:14;3.80;;;0.60;;
80836;SDS011;70251;60.008;30.404;2023-11-22T07:24:45;3.88;;;0.60;;
80836;SDS011;70251;60.008;30.404;2023-11-22T07:27:13;9.25;;;0.95;;
80836;SDS011;70251;60.008;30.404;2023-11-22T07:29:39;3.87;;;0.67;;
80836;SDS011;70251;60.008;30.404;2023-11-22T07:32:06;4.57;;;0.93;;
80836;SDS011;70251;60.008;30.404;2023-11-22T07:34:32;3.80;;;0.70;;
80836;SDS011;70251;60.008;30.404;2023-11-22T07:36:58;3.70;;;0.50;;
80836;SDS011;70251;60.008;30.404;2023-11-22T07:39:24;4.53;;;0.70;;
80836;SDS011;70251;60.008;30.404;2023-11-22T07:41:55;8.07;;;0.80;;
80836;SDS011;70251;60.008;30.404;2023-11-22T07:44:22;4.28;;;0.70;;
80836;SDS011;70251;60.008;30.404;2023-11-22T07:46:49;4.10;;;0.70;;
80836;SDS011;70251;60.008;30.404;2023-11-22T07:49:17;4.33;;;0.63;;
80836;SDS011;70251;60.008;30.404;2023-11-22T07:51:44;4.50;;;0.90;;
80836;SDS011;70251;60.008;30.404;2023-11-22T07:54:18;3.83;;;0.90;;
80836;SDS011;70251;60.008;30.404;2023-11-22T07:56:48;4.13;;;0.80;;
80836;SDS011;70251;60.008;30.404;2023-11-22T07:59:18;3.88;;;0.65;;
80836;SDS011;70251;60.008;30.404;2023-11-22T08:01:44;3.70;;;0.63;;
80836;SDS011;70251;60.008;30.404;2023-11-22T08:04:10;6.20;;;0.80;;
80836;SDS011;70251;60.008;30.404;2023-11-22T08:06:36;4.90;;;0.90;;
80836;SDS011;70251;60.008;30.404;2023-11-22T08:09:02;5.97;;;0.97;;
80836;SDS011;70251;60.008;30.404;2023-11-22T08:11:29;4.43;;;0.70;;
80836;SDS011;70251;60.008;30.404;2023-11-22T08:13:55;4.10;;;0.52;;
80836;SDS011;70251;60.008;30.404;2023-11-22T08:16:25;4.50;;;0.60;;
80836;SDS011;70251;60.008;30.404;2023-11-22T08:18:52;3.42;;;0.70;;
80836;SDS011;70251;60.008;30.404;2023-11-22T08:21:18;3.70;;;0.52;;
80836;SDS011;70251;60.008;30.404;2023-11-22T08:23:45;2.65;;;0.52;;
80836;SDS011;70251;60.008;30.404;2023-11-22T08:26:12;2.92;;;0.68;;
80836;SDS011;70251;60.008;30.404;2023-11-22T08:28:39;4.30;;;0.70;;
80836;SDS011;70251;60.008;30.404;2023-11-22T08:31:05;4.90;;;0.93;;
80836;SDS011;70251;60.008;30.404;2023-11-22T08:33:34;3.38;;;0.60;;
80836;SDS011;70251;60.008;30.404;2023-11-22T08:36:01;3.88;;;0.75;;
80836;SDS011;70251;60.008;30.404;2023-11-22T08:38:28;3.80;;;0.50;;
80836;SDS011;70251;60.008;30.404;2023-11-22T08:40:53;4.03;;;0.47;;
80836;SDS011;70251;60.008;30.404;2023-11-22T08:43:20;5.32;;;0.70;;
80836;SDS011;70251;60.008;30.404;2023-11-22T08:45:48;5.13;;;0.70;;
80836;SDS011;70251;60.008;30.404;2023-11-22T08:48:14;4.57;;;0.63;;
80836;SDS011;70251;60.008;30.404;2023-11-22T08:50:41;3.17;;;0.55;;
80836;SDS011;70251;60.008;30.404;2023-11-22T08:53:06;3.40;;;0.50;;
80836;SDS011;70251;60.008;30.404;2023-11-22T08:55:33;4.57;;;0.60;;
80836;SDS011;70251;60.008;30.404;2023-11-22T08:57:59;3.33;;;0.50;;
80836;SDS011;70251;60.008;30.404;2023-11-22T09:00:25;3.15;;;0.50;;
80836;SDS011;70251;60.008;30.404;2023-11-22T09:02:53;3.63;;;0.40;;
80836;SDS011;70251;60.008;30.404;2023-11-22T09:05:20;2.95;;;0.40;;
80836;SDS011;70251;60.008;30.404;2023-11-22T09:07:47;2.78;;;0.60;;
80836;SDS011;70251;60.008;30.404;2023-11-22T09:10:13;2.50;;;0.40;;
80836;SDS011;70251;60.008;30.404;2023-11-22T09:12:39;3.55;;;0.77;;
80836;SDS011;70251;60.008;30.404;2023-11-22T09:15:09;2.60;;;0.53;;
80836;SDS011;70251;60.008;30.404;2023-11-22T09:17:38;2.05;;;0.30;;
80836;SDS011;70251;60.008;30.404;2023-11-22T09:20:17;2.70;;;0.40;;
80836;SDS011;70251;60.008;30.404;2023-11-22T09:22:45;3.08;;;0.47;;
80836;SDS011;70251;60.008;30.404;2023-11-22T09:25:16;2.60;;;0.30;;
80836;SDS011;70251;60.008;30.404;2023-11-22T09:27:46;3.93;;;0.50;;
80836;SDS011;70251;60.008;30.404;2023-11-22T09:30:15;1.88;;;0.30;;
80836;SDS011;70251;60.008;30.404;2023-11-22T09:33:03;1.67;;;0.20;;
80836;SDS011;70251;60.008;30.404;2023-11-22T09:35:37;3.45;;;0.20;;
80836;SDS011;70251;60.008;30.404;2023-11-22T09:38:05;1.60;;;0.30;;
80836;SDS011;70251;60.008;30.404;2023-11-22T09:40:47;1.63;;;0.30;;
80836;SDS011;70251;60.008;30.404;2023-11-22T09:43:15;1.88;;;0.20;;
80836;SDS011;70251;60.008;30.404;2023-11-22T09:45:44;2.97;;;0.60;;
80836;SDS011;70251;60.008;30.404;2023-11-22T09:48:15;2.35;;;0.20;;
80836;SDS011;70251;60.008;30.404;2023-11-22T09:53:34;2.40;;;0.30;;
80836;SDS011;70251;60.008;30.404;2023-11-22T09:56:05;3.70;;;0.43;;
80836;SDS011;70251;60.008;30.404;2023-11-22T09:58:34;2.63;;;0.30;;
80836;SDS011;70251;60.008;30.404;2023-11-22T10:01:00;1.77;;;0.20;;
80836;SDS011;70251;60.008;30.404;2023-11-22T10:03:27;1.30;;;0.20;;
80836;SDS011;70251;60.008;30.404;2023-11-22T10:06:02;1.53;;;0.30;;
80836;SDS011;70251;60.008;30.404;2023-11-22T10:08:35;2.55;;;0.35;;
80836;SDS011;70251;60.008;30.404;2023-11-22T10:11:02;1.45;;;0.20;;
80836;SDS011;70251;60.008;30.404;2023-11-22T10:13:29;2.78;;;0.77;;
80836;SDS011;70251;60.008;30.404;2023-11-22T10:15:55;1.67;;;0.20;;
80836;SDS011;70251;60.008;30.404;2023-11-22T10:18:21;1.27;;;0.15;;
80836;SDS011;70251;60.008;30.404;2023-11-22T10:20:48;0.73;;;0.07;;
80836;SDS011;70251;60.008;30.404;2023-11-22T10:23:17;1.80;;;0.30;;
80836;SDS011;70251;60.008;30.404;2023-11-22T10:28:15;1.77;;;0.20;;
80836;SDS011;70251;60.008;30.404;2023-11-22T10:30:47;2.90;;;0.30;;
80836;SDS011;70251;60.008;30.404;2023-11-22T10:33:18;1.57;;;0.17;;
80836;SDS011;70251;60.008;30.404;2023-11-22T10:35:49;3.30;;;0.40;;
80836;SDS011;70251;60.008;30.404;2023-11-22T10:38:20;2.42;;;0.40;;
80836;SDS011;70251;60.008;30.404;2023-11-22T10:40:46;2.88;;;0.40;;
80836;SDS011;70251;60.008;30.404;2023-11-22T10:43:14;3.88;;;0.60;;
80836;SDS011;70251;60.008;30.404;2023-11-22T10:45:42;6.27;;;1.10;;
80836;SDS011;70251;60.008;30.404;2023-11-22T10:48:15;3.63;;;0.63;;
80836;SDS011;70251;60.008;30.404;2023-11-22T10:50:44;2.28;;;0.50;;
80836;SDS011;70251;60.008;30.404;2023-11-22T10:53:15;3.13;;;0.30;;
80836;SDS011;70251;60.008;30.404;2023-11-22T10:55:42;2.08;;;0.20;;
80836;SDS011;70251;60.008;30.404;2023-11-22T10:58:12;1.63;;;0.40;;
80836;SDS011;70251;60.008;30.404;2023-11-22T11:00:42;1.33;;;0.15;;
80836;SDS011;70251;60.008;30.404;2023-11-22T11:03:13;2.22;;;0.40;;
80836;SDS011;70251;60.008;30.404;2023-11-22T11:05:44;1.73;;;0.25;;
80836;SDS011;70251;60.008;30.404;2023-11-22T11:08:17;2.75;;;0.43;;
80836;SDS011;70251;60.008;30.404;2023-11-22T11:10:45;1.87;;;0.30;;
80836;SDS011;70251;60.008;30.404;2023-11-22T11:13:15;1.30;;;0.13;;
80836;SDS011;70251;60.008;30.404;2023-11-22T11:15:41;1.45;;;0.10;;
80836;SDS011;70251;60.008;30.404;2023-11-22T11:18:13;2.30;;;0.27;;
80836;SDS011;70251;60.008;30.404;2023-11-22T11:20:56;0.82;;;0.10;;
80836;SDS011;70251;60.008;30.404;2023-11-22T11:23:24;1.63;;;0.20;;
80836;SDS011;70251;60.008;30.404;2023-11-22T11:25:54;1.05;;;0.17;;
80836;SDS011;70251;60.008;30.404;2023-11-22T11:28:24;2.00;;;0.30;;
80836;SDS011;70251;60.008;30.404;2023-11-22T11:30:53;2.73;;;0.30;;
80836;SDS011;70251;60.008;30.404;2023-11-22T11:35:56;1.48;;;0.10;;
80836;SDS011;70251;60.008;30.404;2023-11-22T11:38:26;2.70;;;0.10;;
80836;SDS011;70251;60.008;30.404;2023-11-22T11:40:56;2.88;;;0.10;;
80836;SDS011;70251;60.008;30.404;2023-11-22T11:46:06;3.90;;;0.50;;
80836;SDS011;70251;60.008;30.404;2023-11-22T11:48:35;4.38;;;1.00;;
80836;SDS011;70251;60.008;30.404;2023-11-22T11:51:01;3.28;;;0.50;;
80836;SDS011;70251;60.008;30.404;2023-11-22T11:53:27;6.83;;;1.30;;
80836;SDS011;70251;60.008;30.404;2023-11-22T11:55:53;3.10;;;0.52;;
80836;SDS011;70251;60.008;30.404;2023-11-22T11:58:19;1.95;;;0.20;;
80836;SDS011;70251;60.008;30.404;2023-11-22T12:00:45;2.50;;;0.37;;
80836;SDS011;70251;60.008;30.404;2023-11-22T12:03:13;0.88;;;0.10;;
80836;SDS011;70251;60.008;30.404;2023-11-22T12:05:45;1.65;;;0.20;;
80836;SDS011;70251;60.008;30.404;2023-11-22T12:08:10;1.17;;;0.10;;
80836;SDS011;70251;60.008;30.404;2023-11-22T12:10:41;2.78;;;0.40;;
80836;SDS011;70251;60.008;30.404;2023-11-22T12:13:07;2.35;;;0.30;;
80836;SDS011;70251;60.008;30.404;2023-11-22T12:15:33;2.85;;;0.30;;
80836;SDS011;70251;60.008;30.404;2023-11-22T12:18:00;1.73;;;0.20;;
80836;SDS011;70251;60.008;30.404;2023-11-22T12:20:26;1.02;;;0.10;;
80836;SDS011;70251;60.008;30.404;2023-11-22T12:22:59;1.08;;;0.10;;
80836;SDS011;70251;60.008;30.404;2023-11-22T12:25:29;1.90;;;0.30;;
80836;SDS011;70251;60.008;30.404;2023-11-22T12:27:55;2.88;;;0.75;;
80836;SDS011;70251;60.008;30.404;2023-11-22T12:33:04;5.50;;;0.40;;
80836;SDS011;70251;60.008;30.404;2023-11-22T12:35:37;2.15;;;0.38;;
80836;SDS011;70251;60.008;30.404;2023-11-22T12:38:04;1.20;;;0.20;;
80836;SDS011;70251;60.008;30.404;2023-11-22T12:40:34;2.08;;;0.30;;
80836;SDS011;70251;60.008;30.404;2023-11-22T12:43:01;2.73;;;0.40;;
80836;SDS011;70251;60.008;30.404;2023-11-22T12:45:29;2.40;;;0.22;;
80836;SDS011;70251;60.008;30.404;2023-11-22T12:47:56;1.60;;;0.30;;
80836;SDS011;70251;60.008;30.404;2023-11-22T12:50:36;3.20;;;0.40;;
80836;SDS011;70251;60.008;30.404;2023-11-22T12:53:14;3.08;;;0.50;;
80836;SDS011;70251;60.008;30.404;2023-11-22T12:55:45;4.33;;;0.47;;
80836;SDS011;70251;60.008;30.404;2023-11-22T12:58:13;3.78;;;0.90;;
80836;SDS011;70251;60.008;30.404;2023-11-22T13:00:43;3.55;;;0.70;;
80836;SDS011;70251;60.008;30.404;2023-11-22T13:03:10;2.42;;;0.60;;
80836;SDS011;70251;60.008;30.404;2023-11-22T13:05:37;2.03;;;0.55;;
80836;SDS011;70251;60.008;30.404;2023-11-22T13:08:09;3.27;;;0.60;;
80836;SDS011;70251;60.008;30.404;2023-11-22T13:10:40;1.67;;;0.28;;
80836;SDS011;70251;60.008;30.404;2023-11-22T13:13:09;1.75;;;0.20;;
80836;SDS011;70251;60.008;30.404;2023-11-22T13:15:35;2.80;;;0.40;;
80836;SDS011;70251;60.008;30.404;2023-11-22T13:18:01;2.80;;;0.53;;
80836;SDS011;70251;60.008;30.404;2023-11-22T13:20:27;1.77;;;0.40;;
80836;SDS011;70251;60.008;30.404;2023-11-22T13:22:53;2.40;;;0.40;;
80836;SDS011;70251;60.008;30.404;2023-11-22T13:25:20;3.13;;;0.50;;
80836;SDS011;70251;60.008;30.404;2023-11-22T13:27:51;2.20;;;0.43;;
80836;SDS011;70251;60.008;30.404;2023-11-22T13:30:22;2.15;;;0.38;;
80836;SDS011;70251;60.008;30.404;2023-11-22T13:32:53;2.85;;;0.50;;
80836;SDS011;70251;60.008;30.404;2023-11-22T13:35:27;5.90;;;0.80;;
80836;SDS011;70251;60.008;30.404;2023-11-22T13:37:58;5.70;;;1.60;;
80836;SDS011;70251;60.008;30.404;2023-11-22T13:40:24;1.97;;;0.30;;
80836;SDS011;70251;60.008;30.404;2023-11-22T13:42:52;2.97;;;0.32;;
80836;SDS011;70251;60.008;30.404;2023-11-22T13:45:18;2.47;;;0.50;;
80836;SDS011;70251;60.008;30.404;2023-11-22T13:50:21;2.17;;;0.40;;
80836;SDS011;70251;60.008;30.404;2023-11-22T13:52:48;2.30;;;0.50;;
80836;SDS011;70251;60.008;30.404;2023-11-22T13:55:14;3.90;;;0.52;;
80836;SDS011;70251;60.008;30.404;2023-11-22T13:57:45;2.63;;;0.30;;
80836;SDS011;70251;60.008;30.404;2023-11-22T14:00:11;3.88;;;0.77;;
80836;SDS011;70251;60.008;30.404;2023-11-22T14:02:55;3.08;;;0.40;;
80836;SDS011;70251;60.008;30.404;2023-11-22T14:05:23;2.50;;;0.30;;
80836;SDS011;70251;60.008;30.404;2023-11-22T14:07:53;2.25;;;0.30;;
80836;SDS011;70251;60.008;30.404;2023-11-22T14:10:19;1.88;;;0.20;;
80836;SDS011;70251;60.008;30.404;2023-11-22T14:12:51;1.23;;;0.20;;
80836;SDS011;70251;60.008;30.404;2023-11-22T14:15:17;2.25;;;0.40;;
80836;SDS011;70251;60.008;30.404;2023-11-22T14:17:47;4.47;;;0.50;;
80836;SDS011;70251;60.008;30.404;2023-11-22T14:20:16;1.85;;;0.30;;
80836;SDS011;70251;60.008;30.404;2023-11-22T14:22:42;2.38;;;0.20;;
80836;SDS011;70251;60.008;30.404;2023-11-22T14:25:08;4.37;;;0.30;;
80836;SDS011;70251;60.008;30.404;2023-11-22T14:27:40;2.42;;;0.38;;
80836;SDS011;70251;60.008;30.404;2023-11-22T14:30:06;3.08;;;0.77;;
80836;SDS011;70251;60.008;30.404;2023-11-22T14:32:34;2.63;;;0.40;;
80836;SDS011;70251;60.008;30.404;2023-11-22T14:35:06;2.97;;;0.50;;
80836;SDS011;70251;60.008;30.404;2023-11-22T14:37:35;4.20;;;0.60;;
80836;SDS011;70251;60.008;30.404;2023-11-22T14:40:05;2.53;;;0.50;;
80836;SDS011;70251;60.008;30.404;2023-11-22T14:42:39;3.28;;;0.60;;
80836;SDS011;70251;60.008;30.404;2023-11-22T14:45:08;1.90;;;0.43;;
80836;SDS011;70251;60.008;30.404;2023-11-22T14:47:34;7.00;;;0.70;;
80836;SDS011;70251;60.008;30.404;2023-11-22T14:50:02;2.80;;;0.50;;
80836;SDS011;70251;60.008;30.404;2023-11-22T14:52:39;3.70;;;0.60;;